sensor_id;sensor_type;location;lat;lon;timestamp;P1;durP1;ratioP1;P2;durP2;ratioP2
962;SDS011;469;48.770;9.176;2023-01-30T00:01:18;21.38;;;8.95;;
962;SDS011;469;48.770;9.176;2023-01-30T00:03:46;26.00;;;10.35;;
962;SDS011;469;48.770;9.176;2023-01-30T00:06:13;22.75;;;8.68;;
962;SDS011;469;48.770;9.176;2023-01-30T00:08:40;25.38;;;8.82;;
962;SDS011;469;48.770;9.176;2023-01-30T00:11:09;22.42;;;9.68;;
962;SDS011;469;48.770;9.176;2023-01-30T00:13:36;23.58;;;9.55;;
962;SDS011;469;48.770;9.176;2023-01-30T00:16:03;21.50;;;9.40;;
962;SDS011;469;48.770;9.176;2023-01-30T00:18:30;19.65;;;9.38;;
962;SDS011;469;48.770;9.176;2023-01-30T00:20:58;20.42;;;9.07;;
962;SDS011;469;48.770;9.176;2023-01-30T00:23:26;19.83;;;9.50;;
962;SDS011;469;48.770;9.176;2023-01-30T00:25:53;20.73;;;9.70;;
962;SDS011;469;48.770;9.176;2023-01-30T00:28:22;20.73;;;8.77;;
962;SDS011;469;48.770;9.176;2023-01-30T00:30:49;20.58;;;9.15;;
962;SDS011;469;48.770;9.176;2023-01-30T00:33:17;21.45;;;9.90;;
962;SDS011;469;48.770;9.176;2023-01-30T00:35:44;21.90;;;8.70;;
962;SDS011;469;48.770;9.176;2023-01-30T00:38:12;21.50;;;9.48;;
962;SDS011;469;48.770;9.176;2023-01-30T00:40:39;19.50;;;8.73;;
962;SDS011;469;48.770;9.176;2023-01-30T00:43:06;21.13;;;8.95;;
962;SDS011;469;48.770;9.176;2023-01-30T00:45:52;20.17;;;8.75;;
962;SDS011;469;48.770;9.176;2023-01-30T00:48:38;21.65;;;8.73;;
962;SDS011;469;48.770;9.176;2023-01-30T00:51:05;17.58;;;8.85;;
962;SDS011;469;48.770;9.176;2023-01-30T00:53:32;20.30;;;8.70;;
962;SDS011;469;48.770;9.176;2023-01-30T00:55:59;20.35;;;8.75;;
962;SDS011;469;48.770;9.176;2023-01-30T00:58:26;20.52;;;9.23;;
962;SDS011;469;48.770;9.176;2023-01-30T01:00:54;21.80;;;9.60;;
962;SDS011;469;48.770;9.176;2023-01-30T01:03:21;21.27;;;9.18;;
962;SDS011;469;48.770;9.176;2023-01-30T01:05:48;23.67;;;9.90;;
962;SDS011;469;48.770;9.176;2023-01-30T01:08:16;22.73;;;9.88;;
962;SDS011;469;48.770;9.176;2023-01-30T01:10:44;28.20;;;10.15;;
962;SDS011;469;48.770;9.176;2023-01-30T01:13:11;25.38;;;10.35;;
962;SDS011;469;48.770;9.176;2023-01-30T01:15:38;24.60;;;10.80;;
962;SDS011;469;48.770;9.176;2023-01-30T01:18:06;20.15;;;9.55;;
962;SDS011;469;48.770;9.176;2023-01-30T01:20:33;24.70;;;9.85;;
962;SDS011;469;48.770;9.176;2023-01-30T01:23:00;19.38;;;9.30;;
962;SDS011;469;48.770;9.176;2023-01-30T01:25:27;21.27;;;9.95;;
962;SDS011;469;48.770;9.176;2023-01-30T01:27:57;26.90;;;10.25;;
962;SDS011;469;48.770;9.176;2023-01-30T01:30:24;23.08;;;9.77;;
962;SDS011;469;48.770;9.176;2023-01-30T01:32:51;21.63;;;9.50;;
962;SDS011;469;48.770;9.176;2023-01-30T01:35:19;22.50;;;9.30;;
962;SDS011;469;48.770;9.176;2023-01-30T01:37:46;24.27;;;9.07;;
962;SDS011;469;48.770;9.176;2023-01-30T01:40:15;21.23;;;8.95;;
962;SDS011;469;48.770;9.176;2023-01-30T01:43:01;20.48;;;9.15;;
962;SDS011;469;48.770;9.176;2023-01-30T01:45:28;21.15;;;9.10;;
962;SDS011;469;48.770;9.176;2023-01-30T01:47:58;21.98;;;8.70;;
962;SDS011;469;48.770;9.176;2023-01-30T01:50:27;21.38;;;9.32;;
962;SDS011;469;48.770;9.176;2023-01-30T01:52:55;19.55;;;8.60;;
962;SDS011;469;48.770;9.176;2023-01-30T01:55:23;18.58;;;7.93;;
962;SDS011;469;48.770;9.176;2023-01-30T01:57:51;23.50;;;10.07;;
962;SDS011;469;48.770;9.176;2023-01-30T02:00:21;22.38;;;9.18;;
962;SDS011;469;48.770;9.176;2023-01-30T02:02:50;21.67;;;8.65;;
962;SDS011;469;48.770;9.176;2023-01-30T02:05:18;20.58;;;9.35;;
962;SDS011;469;48.770;9.176;2023-01-30T02:07:52;19.42;;;9.10;;
962;SDS011;469;48.770;9.176;2023-01-30T02:10:22;21.30;;;9.10;;
962;SDS011;469;48.770;9.176;2023-01-30T02:12:49;24.92;;;8.93;;
962;SDS011;469;48.770;9.176;2023-01-30T02:15:17;21.10;;;8.75;;
962;SDS011;469;48.770;9.176;2023-01-30T02:17:45;17.38;;;8.02;;
962;SDS011;469;48.770;9.176;2023-01-30T02:20:15;18.35;;;7.97;;
962;SDS011;469;48.770;9.176;2023-01-30T02:22:51;20.17;;;9.10;;
962;SDS011;469;48.770;9.176;2023-01-30T02:25:29;21.05;;;9.13;;
962;SDS011;469;48.770;9.176;2023-01-30T02:31:06;19.75;;;9.45;;
962;SDS011;469;48.770;9.176;2023-01-30T02:33:36;19.02;;;7.72;;
962;SDS011;469;48.770;9.176;2023-01-30T02:36:08;21.40;;;9.40;;
962;SDS011;469;48.770;9.176;2023-01-30T02:38:40;20.30;;;8.75;;
962;SDS011;469;48.770;9.176;2023-01-30T02:41:12;22.25;;;9.57;;
962;SDS011;469;48.770;9.176;2023-01-30T02:43:44;23.65;;;10.13;;
962;SDS011;469;48.770;9.176;2023-01-30T02:46:14;19.95;;;9.65;;
962;SDS011;469;48.770;9.176;2023-01-30T02:48:44;22.48;;;10.45;;
962;SDS011;469;48.770;9.176;2023-01-30T02:51:15;22.63;;;9.23;;
962;SDS011;469;48.770;9.176;2023-01-30T02:53:44;20.27;;;8.80;;
962;SDS011;469;48.770;9.176;2023-01-30T02:56:12;23.08;;;9.23;;
962;SDS011;469;48.770;9.176;2023-01-30T02:58:40;18.45;;;8.68;;
962;SDS011;469;48.770;9.176;2023-01-30T03:01:32;24.52;;;9.82;;
962;SDS011;469;48.770;9.176;2023-01-30T03:04:06;24.35;;;10.02;;
962;SDS011;469;48.770;9.176;2023-01-30T03:06:40;21.65;;;9.27;;
962;SDS011;469;48.770;9.176;2023-01-30T03:09:12;18.20;;;8.65;;
962;SDS011;469;48.770;9.176;2023-01-30T03:11:43;26.10;;;9.60;;
962;SDS011;469;48.770;9.176;2023-01-30T03:14:13;22.40;;;8.60;;
962;SDS011;469;48.770;9.176;2023-01-30T03:16:45;21.60;;;9.70;;
962;SDS011;469;48.770;9.176;2023-01-30T03:19:13;22.00;;;9.45;;
962;SDS011;469;48.770;9.176;2023-01-30T03:21:40;20.17;;;9.05;;
962;SDS011;469;48.770;9.176;2023-01-30T03:24:08;21.20;;;9.80;;
962;SDS011;469;48.770;9.176;2023-01-30T03:26:36;22.98;;;9.85;;
962;SDS011;469;48.770;9.176;2023-01-30T03:29:06;20.75;;;9.40;;
962;SDS011;469;48.770;9.176;2023-01-30T03:31:33;19.38;;;8.50;;
962;SDS011;469;48.770;9.176;2023-01-30T03:34:01;22.38;;;9.60;;
962;SDS011;469;48.770;9.176;2023-01-30T03:36:28;17.60;;;7.97;;
962;SDS011;469;48.770;9.176;2023-01-30T03:38:55;22.02;;;8.70;;
962;SDS011;469;48.770;9.176;2023-01-30T03:41:23;21.30;;;8.23;;
962;SDS011;469;48.770;9.176;2023-01-30T03:43:50;17.08;;;8.10;;
962;SDS011;469;48.770;9.176;2023-01-30T03:46:17;17.10;;;7.95;;
962;SDS011;469;48.770;9.176;2023-01-30T03:48:44;22.75;;;7.95;;
962;SDS011;469;48.770;9.176;2023-01-30T03:51:12;17.08;;;8.13;;
962;SDS011;469;48.770;9.176;2023-01-30T03:53:39;20.08;;;7.90;;
962;SDS011;469;48.770;9.176;2023-01-30T03:56:06;18.15;;;7.38;;
962;SDS011;469;48.770;9.176;2023-01-30T03:58:40;18.40;;;7.80;;
962;SDS011;469;48.770;9.176;2023-01-30T04:01:07;16.25;;;6.95;;
962;SDS011;469;48.770;9.176;2023-01-30T04:03:35;21.02;;;8.27;;
962;SDS011;469;48.770;9.176;2023-01-30T04:06:02;25.15;;;9.30;;
962;SDS011;469;48.770;9.176;2023-01-30T04:08:30;16.85;;;7.03;;
962;SDS011;469;48.770;9.176;2023-01-30T04:10:57;20.10;;;8.90;;
962;SDS011;469;48.770;9.176;2023-01-30T04:13:24;20.08;;;8.32;;
962;SDS011;469;48.770;9.176;2023-01-30T04:15:51;19.58;;;8.07;;
962;SDS011;469;48.770;9.176;2023-01-30T04:18:18;18.17;;;7.80;;
962;SDS011;469;48.770;9.176;2023-01-30T04:20:45;15.38;;;7.53;;
962;SDS011;469;48.770;9.176;2023-01-30T04:23:12;15.20;;;6.63;;
962;SDS011;469;48.770;9.176;2023-01-30T04:25:44;14.65;;;6.57;;
962;SDS011;469;48.770;9.176;2023-01-30T04:28:12;16.63;;;7.57;;
962;SDS011;469;48.770;9.176;2023-01-30T04:30:39;19.80;;;7.93;;
962;SDS011;469;48.770;9.176;2023-01-30T04:33:06;20.08;;;8.00;;
962;SDS011;469;48.770;9.176;2023-01-30T04:35:33;14.85;;;7.43;;
962;SDS011;469;48.770;9.176;2023-01-30T04:38:00;15.90;;;6.45;;
962;SDS011;469;48.770;9.176;2023-01-30T04:40:27;17.48;;;7.43;;
962;SDS011;469;48.770;9.176;2023-01-30T04:42:55;17.48;;;6.47;;
962;SDS011;469;48.770;9.176;2023-01-30T04:45:22;16.73;;;6.80;;
962;SDS011;469;48.770;9.176;2023-01-30T04:47:49;18.65;;;7.40;;
962;SDS011;469;48.770;9.176;2023-01-30T04:50:16;17.42;;;6.63;;
962;SDS011;469;48.770;9.176;2023-01-30T04:52:44;16.27;;;6.50;;
962;SDS011;469;48.770;9.176;2023-01-30T04:55:11;12.70;;;6.13;;
962;SDS011;469;48.770;9.176;2023-01-30T04:57:38;15.50;;;7.43;;
962;SDS011;469;48.770;9.176;2023-01-30T05:00:07;20.15;;;6.20;;
962;SDS011;469;48.770;9.176;2023-01-30T05:02:34;14.60;;;6.95;;
962;SDS011;469;48.770;9.176;2023-01-30T05:05:02;14.48;;;6.82;;
962;SDS011;469;48.770;9.176;2023-01-30T05:07:29;21.33;;;7.10;;
962;SDS011;469;48.770;9.176;2023-01-30T05:09:56;13.90;;;6.30;;
962;SDS011;469;48.770;9.176;2023-01-30T05:12:23;20.85;;;8.25;;
962;SDS011;469;48.770;9.176;2023-01-30T05:14:50;20.67;;;6.97;;
962;SDS011;469;48.770;9.176;2023-01-30T05:17:18;19.05;;;6.80;;
962;SDS011;469;48.770;9.176;2023-01-30T05:19:45;14.40;;;6.93;;
962;SDS011;469;48.770;9.176;2023-01-30T05:22:12;14.20;;;6.50;;
962;SDS011;469;48.770;9.176;2023-01-30T05:24:39;15.63;;;6.57;;
962;SDS011;469;48.770;9.176;2023-01-30T05:27:06;18.23;;;7.18;;
962;SDS011;469;48.770;9.176;2023-01-30T05:29:33;18.98;;;6.28;;
962;SDS011;469;48.770;9.176;2023-01-30T05:32:00;21.13;;;7.28;;
962;SDS011;469;48.770;9.176;2023-01-30T05:34:29;20.63;;;6.90;;
962;SDS011;469;48.770;9.176;2023-01-30T05:36:56;19.67;;;5.75;;
962;SDS011;469;48.770;9.176;2023-01-30T05:39:23;14.35;;;6.38;;
962;SDS011;469;48.770;9.176;2023-01-30T05:41:50;14.93;;;6.80;;
962;SDS011;469;48.770;9.176;2023-01-30T05:44:17;18.25;;;6.85;;
962;SDS011;469;48.770;9.176;2023-01-30T05:46:44;14.55;;;6.60;;
962;SDS011;469;48.770;9.176;2023-01-30T05:49:12;13.88;;;6.47;;
962;SDS011;469;48.770;9.176;2023-01-30T05:51:40;11.20;;;5.57;;
962;SDS011;469;48.770;9.176;2023-01-30T05:54:07;13.40;;;6.40;;
962;SDS011;469;48.770;9.176;2023-01-30T05:56:35;18.98;;;7.13;;
962;SDS011;469;48.770;9.176;2023-01-30T05:59:04;22.77;;;7.18;;
962;SDS011;469;48.770;9.176;2023-01-30T06:01:31;14.35;;;5.72;;
962;SDS011;469;48.770;9.176;2023-01-30T06:03:58;13.77;;;6.60;;
962;SDS011;469;48.770;9.176;2023-01-30T06:06:25;21.85;;;6.70;;
962;SDS011;469;48.770;9.176;2023-01-30T06:08:54;15.00;;;6.07;;
962;SDS011;469;48.770;9.176;2023-01-30T06:11:21;21.38;;;7.03;;
962;SDS011;469;48.770;9.176;2023-01-30T06:13:49;14.40;;;6.20;;
962;SDS011;469;48.770;9.176;2023-01-30T06:16:16;15.40;;;6.15;;
962;SDS011;469;48.770;9.176;2023-01-30T06:18:43;16.05;;;6.20;;
962;SDS011;469;48.770;9.176;2023-01-30T06:21:11;14.63;;;6.50;;
962;SDS011;469;48.770;9.176;2023-01-30T06:23:39;14.95;;;6.53;;
962;SDS011;469;48.770;9.176;2023-01-30T06:26:08;14.60;;;6.20;;
962;SDS011;469;48.770;9.176;2023-01-30T06:28:35;19.80;;;7.60;;
962;SDS011;469;48.770;9.176;2023-01-30T06:31:06;14.93;;;6.35;;
962;SDS011;469;48.770;9.176;2023-01-30T06:33:33;22.33;;;7.47;;
962;SDS011;469;48.770;9.176;2023-01-30T06:36:00;17.73;;;7.05;;
962;SDS011;469;48.770;9.176;2023-01-30T06:38:27;15.00;;;6.40;;
962;SDS011;469;48.770;9.176;2023-01-30T06:40:54;14.55;;;6.32;;
962;SDS011;469;48.770;9.176;2023-01-30T06:43:23;18.90;;;5.65;;
962;SDS011;469;48.770;9.176;2023-01-30T06:45:50;16.55;;;6.88;;
962;SDS011;469;48.770;9.176;2023-01-30T06:48:17;16.70;;;6.10;;
962;SDS011;469;48.770;9.176;2023-01-30T06:50:44;17.63;;;6.47;;
962;SDS011;469;48.770;9.176;2023-01-30T06:53:14;17.58;;;6.30;;
962;SDS011;469;48.770;9.176;2023-01-30T06:55:41;16.40;;;7.13;;
962;SDS011;469;48.770;9.176;2023-01-30T06:58:09;15.38;;;6.80;;
962;SDS011;469;48.770;9.176;2023-01-30T07:00:38;21.05;;;6.90;;
962;SDS011;469;48.770;9.176;2023-01-30T07:03:08;14.57;;;6.20;;
962;SDS011;469;48.770;9.176;2023-01-30T07:05:36;18.48;;;6.50;;
962;SDS011;469;48.770;9.176;2023-01-30T07:08:03;15.50;;;6.43;;
962;SDS011;469;48.770;9.176;2023-01-30T07:10:30;18.65;;;6.90;;
962;SDS011;469;48.770;9.176;2023-01-30T07:12:57;23.33;;;6.30;;
962;SDS011;469;48.770;9.176;2023-01-30T07:15:24;19.95;;;6.38;;
962;SDS011;469;48.770;9.176;2023-01-30T07:17:53;14.57;;;6.63;;
962;SDS011;469;48.770;9.176;2023-01-30T07:20:20;18.75;;;6.82;;
962;SDS011;469;48.770;9.176;2023-01-30T07:22:48;16.90;;;5.93;;
962;SDS011;469;48.770;9.176;2023-01-30T07:25:15;17.13;;;6.53;;
962;SDS011;469;48.770;9.176;2023-01-30T07:27:42;20.23;;;6.40;;
962;SDS011;469;48.770;9.176;2023-01-30T07:30:10;14.55;;;6.35;;
962;SDS011;469;48.770;9.176;2023-01-30T07:32:37;21.10;;;6.32;;
962;SDS011;469;48.770;9.176;2023-01-30T07:35:06;17.30;;;6.47;;
962;SDS011;469;48.770;9.176;2023-01-30T07:37:33;19.00;;;7.40;;
962;SDS011;469;48.770;9.176;2023-01-30T07:40:00;14.57;;;6.97;;
962;SDS011;469;48.770;9.176;2023-01-30T07:42:27;25.08;;;6.72;;
962;SDS011;469;48.770;9.176;2023-01-30T07:44:54;14.68;;;6.25;;
962;SDS011;469;48.770;9.176;2023-01-30T07:47:21;13.68;;;5.90;;
962;SDS011;469;48.770;9.176;2023-01-30T07:49:48;16.83;;;5.15;;
962;SDS011;469;48.770;9.176;2023-01-30T07:52:17;17.88;;;6.28;;
962;SDS011;469;48.770;9.176;2023-01-30T07:54:47;20.40;;;6.20;;
962;SDS011;469;48.770;9.176;2023-01-30T07:57:14;20.17;;;7.03;;
962;SDS011;469;48.770;9.176;2023-01-30T07:59:41;18.15;;;5.65;;
962;SDS011;469;48.770;9.176;2023-01-30T08:02:08;21.38;;;6.70;;
962;SDS011;469;48.770;9.176;2023-01-30T08:04:35;12.77;;;5.70;;
962;SDS011;469;48.770;9.176;2023-01-30T08:07:03;26.08;;;8.65;;
962;SDS011;469;48.770;9.176;2023-01-30T08:09:31;27.33;;;5.75;;
962;SDS011;469;48.770;9.176;2023-01-30T08:11:58;16.48;;;6.05;;
962;SDS011;469;48.770;9.176;2023-01-30T08:14:25;13.60;;;5.43;;
962;SDS011;469;48.770;9.176;2023-01-30T08:16:54;15.45;;;5.53;;
962;SDS011;469;48.770;9.176;2023-01-30T08:19:22;24.73;;;5.90;;
962;SDS011;469;48.770;9.176;2023-01-30T08:21:49;11.13;;;5.10;;
962;SDS011;469;48.770;9.176;2023-01-30T08:24:16;15.73;;;5.40;;
962;SDS011;469;48.770;9.176;2023-01-30T08:26:46;15.95;;;6.22;;
962;SDS011;469;48.770;9.176;2023-01-30T08:29:13;10.20;;;5.15;;
962;SDS011;469;48.770;9.176;2023-01-30T08:31:40;12.00;;;5.75;;
962;SDS011;469;48.770;9.176;2023-01-30T08:34:07;14.18;;;6.20;;
962;SDS011;469;48.770;9.176;2023-01-30T08:36:34;24.50;;;6.90;;
962;SDS011;469;48.770;9.176;2023-01-30T08:39:01;12.63;;;5.53;;
962;SDS011;469;48.770;9.176;2023-01-30T08:41:28;18.65;;;5.60;;
962;SDS011;469;48.770;9.176;2023-01-30T08:43:57;11.73;;;5.03;;
962;SDS011;469;48.770;9.176;2023-01-30T08:46:24;14.48;;;6.10;;
962;SDS011;469;48.770;9.176;2023-01-30T08:48:51;20.75;;;5.95;;
962;SDS011;469;48.770;9.176;2023-01-30T08:51:18;17.83;;;6.43;;
962;SDS011;469;48.770;9.176;2023-01-30T08:53:45;15.73;;;5.70;;
962;SDS011;469;48.770;9.176;2023-01-30T08:56:12;11.98;;;5.72;;
962;SDS011;469;48.770;9.176;2023-01-30T08:58:39;18.35;;;6.45;;
962;SDS011;469;48.770;9.176;2023-01-30T09:01:09;17.00;;;7.00;;
962;SDS011;469;48.770;9.176;2023-01-30T09:03:39;17.33;;;5.53;;
962;SDS011;469;48.770;9.176;2023-01-30T09:06:06;17.15;;;5.18;;
962;SDS011;469;48.770;9.176;2023-01-30T09:08:34;14.02;;;4.32;;
962;SDS011;469;48.770;9.176;2023-01-30T11:20:26;4.13;;;2.00;;
962;SDS011;469;48.770;9.176;2023-01-30T11:38:10;4.78;;;2.65;;
962;SDS011;469;48.770;9.176;2023-01-30T11:41:01;8.02;;;3.20;;
962;SDS011;469;48.770;9.176;2023-01-30T11:44:29;6.10;;;2.70;;
962;SDS011;469;48.770;9.176;2023-01-30T11:47:19;6.40;;;2.60;;
962;SDS011;469;48.770;9.176;2023-01-30T11:50:33;5.45;;;2.75;;
962;SDS011;469;48.770;9.176;2023-01-30T11:52:56;8.57;;;3.78;;
962;SDS011;469;48.770;9.176;2023-01-30T12:10:03;6.65;;;2.83;;
962;SDS011;469;48.770;9.176;2023-01-30T12:12:46;7.20;;;2.70;;
962;SDS011;469;48.770;9.176;2023-01-30T12:15:25;8.88;;;3.85;;
962;SDS011;469;48.770;9.176;2023-01-30T12:18:00;7.35;;;3.70;;
962;SDS011;469;48.770;9.176;2023-01-30T12:26:11;7.85;;;3.70;;
962;SDS011;469;48.770;9.176;2023-01-30T12:28:45;14.80;;;3.03;;
962;SDS011;469;48.770;9.176;2023-01-30T12:31:21;6.60;;;3.08;;
962;SDS011;469;48.770;9.176;2023-01-30T12:33:51;7.97;;;2.65;;
962;SDS011;469;48.770;9.176;2023-01-30T12:39:12;7.55;;;3.33;;
962;SDS011;469;48.770;9.176;2023-01-30T12:41:53;9.25;;;3.80;;
962;SDS011;469;48.770;9.176;2023-01-30T12:44:42;5.97;;;3.10;;
962;SDS011;469;48.770;9.176;2023-01-30T12:50:32;6.60;;;3.30;;
962;SDS011;469;48.770;9.176;2023-01-30T12:58:55;7.72;;;3.28;;
962;SDS011;469;48.770;9.176;2023-01-30T13:01:27;8.98;;;2.95;;
962;SDS011;469;48.770;9.176;2023-01-30T13:04:12;9.52;;;3.50;;
962;SDS011;469;48.770;9.176;2023-01-30T13:06:57;9.48;;;3.70;;
962;SDS011;469;48.770;9.176;2023-01-30T13:12:30;14.60;;;4.03;;
962;SDS011;469;48.770;9.176;2023-01-30T13:18:07;8.50;;;3.30;;
962;SDS011;469;48.770;9.176;2023-01-30T13:20:55;14.30;;;3.65;;
962;SDS011;469;48.770;9.176;2023-01-30T13:23:46;12.65;;;4.15;;
962;SDS011;469;48.770;9.176;2023-01-30T13:26:16;15.75;;;4.72;;
962;SDS011;469;48.770;9.176;2023-01-30T13:29:12;8.63;;;3.22;;
962;SDS011;469;48.770;9.176;2023-01-30T13:31:42;10.00;;;3.50;;
962;SDS011;469;48.770;9.176;2023-01-30T13:34:18;9.90;;;3.22;;
962;SDS011;469;48.770;9.176;2023-01-30T13:37:05;6.70;;;3.30;;
962;SDS011;469;48.770;9.176;2023-01-30T13:39:44;10.10;;;4.15;;
962;SDS011;469;48.770;9.176;2023-01-30T13:42:44;11.98;;;3.83;;
962;SDS011;469;48.770;9.176;2023-01-30T13:45:20;8.35;;;3.60;;
962;SDS011;469;48.770;9.176;2023-01-30T13:48:09;7.13;;;3.10;;
962;SDS011;469;48.770;9.176;2023-01-30T13:54:04;9.02;;;3.67;;
962;SDS011;469;48.770;9.176;2023-01-30T13:56:38;10.20;;;4.03;;
962;SDS011;469;48.770;9.176;2023-01-30T13:59:21;10.95;;;4.00;;
962;SDS011;469;48.770;9.176;2023-01-30T14:02:38;12.80;;;4.50;;
962;SDS011;469;48.770;9.176;2023-01-30T14:08:22;11.27;;;3.90;;
962;SDS011;469;48.770;9.176;2023-01-30T14:11:01;11.02;;;4.00;;
962;SDS011;469;48.770;9.176;2023-01-30T14:13:50;9.73;;;3.88;;
962;SDS011;469;48.770;9.176;2023-01-30T14:16:17;6.80;;;3.28;;
962;SDS011;469;48.770;9.176;2023-01-30T14:18:52;5.40;;;2.17;;
962;SDS011;469;48.770;9.176;2023-01-30T14:21:26;5.90;;;2.05;;
962;SDS011;469;48.770;9.176;2023-01-30T14:24:16;12.90;;;2.08;;
962;SDS011;469;48.770;9.176;2023-01-30T14:27:20;4.10;;;1.77;;
962;SDS011;469;48.770;9.176;2023-01-30T14:29:54;3.92;;;2.00;;
962;SDS011;469;48.770;9.176;2023-01-30T14:35:21;4.88;;;1.75;;
962;SDS011;469;48.770;9.176;2023-01-30T14:37:49;3.50;;;1.40;;
962;SDS011;469;48.770;9.176;2023-01-30T14:46:10;2.35;;;1.42;;
962;SDS011;469;48.770;9.176;2023-01-30T14:49:19;2.97;;;1.50;;
962;SDS011;469;48.770;9.176;2023-01-30T14:51:33;5.20;;;1.60;;
962;SDS011;469;48.770;9.176;2023-01-30T14:54:05;3.53;;;1.10;;
962;SDS011;469;48.770;9.176;2023-01-30T14:56:38;3.03;;;1.60;;
962;SDS011;469;48.770;9.176;2023-01-30T14:59:08;3.72;;;1.63;;
962;SDS011;469;48.770;9.176;2023-01-30T18:03:24;5.72;;;3.00;;
